Airfield :
LOGIN :

Register | Disclaimer

   EN    FR    IT 

 










Legend :    VFR   Marginal VFR   IFR   Intensive IFR   Very Intensive IFR
Visi :
Ceiling :
>= 8 km
>= 3000ft
5 to 8 km
1000 to 3000 ft
1500m to 5 km
500 to 1000 ft
800 to 1500m
200 to 500 ft
< 800m
< 200 ft
Symbols :   Thunderstorms  Fog  Heavy snow  Heavy precipitations  Wind > 20 kt
SIGMETs :     Misc.  Thunderstorms  Icing  Turbulence  Mountain Waves  Volcanic Ashes






- Airport Elevation : 485 ft
- IATA code : QSA


LELL - Sabadell

CURRENT METAR :
  • 030000Z AUTO VRB01KT CAVOK 19/18 Q1013

EXPIRED METARs :
  • 022330Z AUTO 28003KT 230V330 9999 SCT060 19/18 Q1014
  • 022300Z AUTO VRB02KT 9999 BKN059 19/18 Q1014
  • 022230Z AUTO 24002KT 9999 SCT060 19/18 Q1014
  • 022200Z AUTO 29002KT 9999 FEW060 19/18 Q1014
  • 022130Z AUTO 17001KT CAVOK 20/18 Q1014

TAF TAF LELL
Valid from the 02 at 15:00 until the 03 at 15:00 UTC


021400Z 0215/0315 13010KT 9999 SCT030 TX28/0312Z TN16/0306Z
PROB40
TEMPO 0215/0221 SHRA TS FEW040CB
BECMG 0218/0220 VRB04KT
BECMG 0310/0312 19010KT



MET'MAP, your aeronautical weather chart ! - Copyright ORBIFLY December 2007 - Disclaimer

ORBIFLY MET'MAP TEAM :

Programming & Development : Alexandra Zaïnal
Concept & original design : Baudouin d'Aumeries
Assistance for programming : Marc-Olivier Méhu
Technical & hardware support : Manuel Goepfert

Contact : metmap@orbifly.com




SOURCES & CREDITS :

   NOAA